Time;durP1;ratioP1;P1;durP2;ratioP2;P2;SDS_P1;SDS_P2;PMS_P1;PMS_P2;Temp;Humidity;BMP_temperature;BMP_pressure;BME280_temperature;BME280_humidity;BME280_pressure;Samples;Min_cycle;Max_cycle;Signal;HPM_P1;HPM_P2
2021/06/13 00:01:26;;;;;;;;;4.00;3.00;;;;;27.28;40.27;102172.41;5018518;28;45239;-42
2021/06/13 00:03:52;;;;;;;;;4.50;3.75;;;;;27.27;40.43;102178.97;5018305;28;46061;-42
2021/06/13 00:06:18;;;;;;;;;5.00;2.75;;;;;27.26;40.64;102172.59;5016641;28;45368;-42
2021/06/13 00:08:43;;;;;;;;;4.25;4.25;;;;;27.23;40.53;102163.84;5018080;28;45322;-47
2021/06/13 00:11:10;;;;;;;;;3.50;3.50;;;;;27.24;40.29;102169.16;5017732;28;45323;-45
2021/06/13 00:13:37;;;;;;;;;2.00;2.00;;;;;27.22;40.13;102168.47;5013039;28;45396;-42
2021/06/13 00:16:03;;;;;;;;;5.25;3.75;;;;;27.22;40.34;102167.63;4998152;28;45491;-42
2021/06/13 00:18:29;;;;;;;;;3.75;3.00;;;;;27.21;40.30;102165.91;4997644;28;45182;-42
2021/06/13 00:20:55;;;;;;;;;4.00;3.75;;;;;27.16;40.09;102160.91;4997072;28;45456;-42
2021/06/13 00:23:20;;;;;;;;;4.00;4.00;;;;;27.18;40.70;102167.13;4998115;28;45468;-43
2021/06/13 00:25:47;;;;;;;;;3.75;3.75;;;;;27.14;40.30;102161.06;4996729;28;45476;-42
2021/06/13 00:28:13;;;;;;;;;4.00;4.00;;;;;27.11;40.32;102149.56;4998276;28;45465;-42
2021/06/13 00:30:39;;;;;;;;;6.00;4.00;;;;;27.13;40.50;102155.75;4998047;28;45412;-43
2021/06/13 00:33:06;;;;;;;;;4.00;4.00;;;;;27.10;40.43;102151.47;4996591;28;45482;-45
2021/06/13 00:35:32;;;;;;;;;6.00;5.00;;;;;27.09;40.64;102148.88;4996802;28;45432;-44
2021/06/13 00:37:58;;;;;;;;;3.25;3.00;;;;;27.08;40.18;102155.41;4996875;28;45403;-45
2021/06/13 00:40:26;;;;;;;;;2.75;2.75;;;;;27.07;40.74;102161.94;4997939;28;45369;-44
2021/06/13 00:42:53;;;;;;;;;5.25;3.75;;;;;27.05;40.60;102153.00;4996544;28;46442;-46
2021/06/13 00:45:19;;;;;;;;;4.00;3.00;;;;;27.04;40.83;102157.66;5009815;28;45566;-47
2021/06/13 00:47:45;;;;;;;;;4.25;3.00;;;;;27.03;40.89;102157.84;5016276;28;45468;-47
2021/06/13 00:50:33;;;;;;;;;6.00;3.50;;;;;27.01;40.66;102162.66;5017852;28;45380;-48
2021/06/13 00:53:03;;;;;;;;;5.00;4.00;;;;;26.99;40.93;102165.59;5016110;28;45813;-47
2021/06/13 00:55:29;;;;;;;;;3.75;3.75;;;;;26.97;40.43;102168.53;5016162;28;45411;-45
2021/06/13 00:57:54;;;;;;;;;6.00;4.00;;;;;26.95;40.57;102162.31;5017238;28;45547;-45
2021/06/13 01:00:20;;;;;;;;;6.00;3.50;;;;;26.95;40.47;102156.81;5017473;28;45365;-47
2021/06/13 01:02:46;;;;;;;;;2.00;2.00;;;;;26.94;40.40;102157.00;5017424;28;46228;-47
2021/06/13 01:05:12;;;;;;;;;3.25;3.00;;;;;26.94;40.66;102163.34;5017428;28;45506;-45
2021/06/13 01:07:44;;;;;;;;;4.00;4.00;;;;;26.92;40.96;102156.31;5017085;28;45533;-45
2021/06/13 01:10:41;;;;;;;;;4.00;3.00;;;;;26.90;41.10;102156.47;5001997;28;45517;-48
2021/06/13 01:13:28;;;;;;;;;4.25;3.00;;;;;26.89;41.08;102156.66;5009936;28;45357;-45
2021/06/13 01:16:15;;;;;;;;;3.00;3.00;;;;;26.88;41.16;102158.56;5017142;28;45702;-47
2021/06/13 01:18:48;;;;;;;;;5.00;4.00;;;;;26.86;40.75;102157.88;5015699;28;45311;-47
2021/06/13 01:21:19;;;;;;;;;4.00;4.00;;;;;26.85;40.91;102156.16;5017286;28;45276;-45
2021/06/13 01:24:03;;;;;;;;;5.25;4.00;;;;;26.83;40.86;102155.44;5016851;28;46135;-46
2021/06/13 01:26:34;;;;;;;;;4.00;4.00;;;;;26.80;40.66;102161.31;5015713;28;45598;-45
2021/06/13 01:29:01;;;;;;;;;5.00;5.00;;;;;26.77;40.92;102158.84;5016843;28;45579;-47
2021/06/13 01:31:35;;;;;;;;;4.00;3.00;;;;;26.78;41.29;102155.94;5014993;28;45591;-48
2021/06/13 01:34:02;;;;;;;;;3.25;3.25;;;;;26.78;40.65;102157.81;5015478;28;45519;-49
2021/06/13 01:36:32;;;;;;;;;4.25;3.25;;;;;26.77;40.82;102167.13;5016932;28;45717;-48
2021/06/13 01:38:58;;;;;;;;;3.00;3.00;;;;;26.75;40.87;102164.56;5017087;28;45396;-48
2021/06/13 01:41:29;;;;;;;;;4.00;4.00;;;;;26.74;40.90;102173.00;5016987;28;45548;-46
2021/06/13 01:43:57;;;;;;;;;3.75;3.75;;;;;26.73;41.12;102163.84;5015317;28;46604;-46
2021/06/13 01:46:25;;;;;;;;;5.75;4.00;;;;;26.73;41.41;102176.78;4999145;28;45391;-45
2021/06/13 01:48:53;;;;;;;;;3.75;3.75;;;;;26.72;40.82;102175.06;4997011;28;45387;-47
2021/06/13 01:51:19;;;;;;;;;3.25;3.25;;;;;26.72;41.00;102173.16;4997043;28;45416;-46
2021/06/13 01:53:45;;;;;;;;;3.50;3.50;;;;;26.71;41.36;102173.34;4996732;28;45254;-48
2021/06/13 01:56:13;;;;;;;;;3.50;3.50;;;;;26.71;41.47;102179.69;4996860;28;45385;-49
2021/06/13 01:58:42;;;;;;;;;3.00;3.00;;;;;26.68;41.29;102169.88;4996851;28;45419;-46
2021/06/13 02:01:09;;;;;;;;;3.00;3.00;;;;;26.68;41.43;102178.16;5015320;28;45382;-47
2021/06/13 02:03:36;;;;;;;;;2.00;2.00;;;;;26.68;41.30;102174.56;5016466;28;45318;-46
2021/06/13 02:06:03;;;;;;;;;6.00;5.00;;;;;26.68;41.17;102188.34;5016270;28;45734;-44
2021/06/13 02:08:37;;;;;;;;;3.25;3.25;;;;;26.67;41.62;102183.84;5016329;28;45298;-44
2021/06/13 02:11:08;;;;;;;;;3.50;3.50;;;;;26.66;41.02;102179.38;4995130;28;45386;-48
2021/06/13 02:13:35;;;;;;;;;4.25;3.75;;;;;26.66;41.22;102188.47;5007761;28;46038;-48
2021/06/13 02:16:03;;;;;;;;;4.75;4.75;;;;;26.66;41.04;102187.63;5016212;28;45264;-49
2021/06/13 02:18:30;;;;;;;;;4.00;4.00;;;;;26.65;41.61;102192.28;5016558;28;45372;-49
2021/06/13 02:21:00;;;;;;;;;4.50;4.50;;;;;26.64;41.35;102186.94;5016270;28;45398;-48
2021/06/13 02:23:28;;;;;;;;;4.50;4.50;;;;;26.65;41.47;102196.94;5014890;28;45549;-46
2021/06/13 02:25:54;;;;;;;;;3.75;3.75;;;;;26.64;41.51;102204.31;5016108;28;45528;-45
2021/06/13 02:28:22;;;;;;;;;3.75;3.75;;;;;26.63;41.37;102202.59;5016146;28;45505;-50
2021/06/13 02:30:49;;;;;;;;;7.00;4.25;;;;;26.64;41.28;102203.47;5016252;28;45380;-45
2021/06/13 02:33:17;;;;;;;;;5.50;4.00;;;;;26.64;41.88;102206.22;5016018;28;46153;-48
2021/06/13 02:35:47;;;;;;;;;4.25;4.25;;;;;26.60;41.42;102194.69;5015559;28;45587;-45
2021/06/13 02:38:14;;;;;;;;;3.75;3.25;;;;;26.62;41.54;102197.25;5016153;28;45313;-47
2021/06/13 02:40:40;;;;;;;;;4.25;3.25;;;;;26.61;41.33;102198.28;5015999;28;45230;-44
2021/06/13 02:43:06;;;;;;;;;4.00;4.00;;;;;26.61;41.75;102199.16;5019654;28;45257;-50
2021/06/13 02:45:31;;;;;;;;;6.00;5.25;;;;;26.60;41.38;102196.56;5019566;28;45266;-47
2021/06/13 02:47:57;;;;;;;;;4.00;4.00;;;;;26.58;41.65;102205.03;5014594;28;45348;-47
2021/06/13 02:50:24;;;;;;;;;4.00;4.00;;;;;26.59;41.38;102200.34;4999728;28;45278;-44
2021/06/13 02:53:02;;;;;;;;;5.50;5.50;;;;;26.58;41.33;102207.78;4999419;28;45514;-47
2021/06/13 02:55:38;;;;;;;;;5.25;4.25;;;;;26.57;41.37;102211.56;4999541;28;45313;-47
2021/06/13 02:58:17;;;;;;;;;4.50;3.75;;;;;26.56;41.52;102215.34;4999724;28;45361;-47
2021/06/13 03:00:44;;;;;;;;;5.25;4.00;;;;;26.56;41.39;102215.34;5014600;28;45345;-49
2021/06/13 03:03:11;;;;;;;;;4.75;3.75;;;;;26.53;41.42;102224.81;5019121;28;45352;-48
2021/06/13 03:05:37;;;;;;;;;5.00;4.50;;;;;26.52;41.96;102220.34;5019287;28;45323;-44
2021/06/13 03:08:03;;;;;;;;;3.00;3.00;;;;;26.51;41.67;102226.88;5019254;28;45525;-48
2021/06/13 03:10:29;;;;;;;;;5.25;3.25;;;;;26.52;41.40;102228.59;5001112;28;45508;-42
2021/06/13 03:12:57;;;;;;;;;3.00;3.00;;;;;26.50;41.39;102230.66;5017728;28;46553;-47
2021/06/13 03:15:26;;;;;;;;;5.00;3.50;;;;;26.49;41.66;102228.06;5004001;28;45404;-45
2021/06/13 03:17:53;;;;;;;;;5.25;5.25;;;;;26.49;41.57;102236.31;5019250;28;45388;-48
2021/06/13 03:20:18;;;;;;;;;6.00;5.00;;;;;26.48;41.34;102231.84;5019016;28;45296;-47
2021/06/13 03:22:44;;;;;;;;;5.25;4.00;;;;;26.47;41.75;102233.75;5018945;28;45323;-47
2021/06/13 03:25:11;;;;;;;;;5.75;4.50;;;;;26.47;41.88;102243.91;5018684;28;45471;-43
2021/06/13 03:27:40;;;;;;;;;5.75;4.00;;;;;26.46;41.21;102240.28;5019066;28;45207;-44
2021/06/13 03:30:06;;;;;;;;;3.75;3.75;;;;;26.46;41.70;102243.03;5018975;28;45352;-46
2021/06/13 03:32:32;;;;;;;;;3.50;3.50;;;;;26.45;41.95;102240.47;5018897;28;46445;-43
2021/06/13 03:34:58;;;;;;;;;4.25;4.25;;;;;26.43;41.24;102237.84;5018881;28;45767;-44
2021/06/13 03:37:26;;;;;;;;;3.75;3.75;;;;;26.43;41.39;102237.84;5018728;28;45337;-47
2021/06/13 03:39:53;;;;;;;;;6.00;5.00;;;;;26.43;41.29;102239.75;5017338;28;45306;-48
2021/06/13 03:42:19;;;;;;;;;6.25;6.25;;;;;26.42;41.31;102243.53;5018631;28;45419;-46
2021/06/13 03:44:47;;;;;;;;;4.00;4.00;;;;;26.39;41.73;102239.25;5018686;28;45729;-44
2021/06/13 03:47:13;;;;;;;;;7.00;4.25;;;;;26.40;41.18;102242.84;5018722;28;45333;-44
2021/06/13 03:49:39;;;;;;;;;3.50;3.50;;;;;26.38;41.81;102249.38;5018641;28;45423;-46
2021/06/13 03:52:05;;;;;;;;;3.00;3.00;;;;;26.37;41.25;102247.66;5016898;28;47332;-44
2021/06/13 03:54:32;;;;;;;;;3.25;3.25;;;;;26.37;41.35;102235.78;5017742;28;45283;-45
2021/06/13 03:57:02;;;;;;;;;3.25;3.25;;;;;26.37;41.25;102244.06;5018737;28;45423;-44
2021/06/13 03:59:29;;;;;;;;;4.00;3.00;;;;;26.35;41.23;102241.44;5018120;28;45304;-43
2021/06/13 04:01:57;;;;;;;;;3.75;3.75;;;;;26.35;41.36;102240.59;5017027;28;45552;-44
2021/06/13 04:04:24;;;;;;;;;5.75;4.00;;;;;26.32;41.25;102236.31;5018134;28;45346;-47
2021/06/13 04:06:51;;;;;;;;;4.75;4.75;;;;;26.34;41.05;102255.41;5018201;28;45388;-44
2021/06/13 04:09:18;;;;;;;;;4.00;3.25;;;;;26.31;41.64;102241.97;5011185;28;45448;-44
2021/06/13 04:11:50;;;;;;;;;6.00;5.25;;;;;26.32;41.24;102247.31;4999284;28;45435;-47
2021/06/13 04:14:16;;;;;;;;;3.75;3.25;;;;;26.32;41.44;102260.22;5007938;28;45369;-44
2021/06/13 04:16:46;;;;;;;;;4.00;4.00;;;;;26.32;41.38;102250.06;4998238;28;45290;-44
2021/06/13 04:19:12;;;;;;;;;3.50;3.50;;;;;26.32;41.20;102268.47;4998509;28;45338;-48
2021/06/13 04:21:43;;;;;;;;;4.50;4.50;;;;;26.31;41.58;102275.88;4996897;28;46588;-43
2021/06/13 04:24:19;;;;;;;;;4.00;4.00;;;;;26.31;41.00;102277.75;4998336;28;45568;-49
2021/06/13 04:26:46;;;;;;;;;5.00;5.00;;;;;26.30;41.33;102273.28;4996890;28;45320;-46
2021/06/13 04:29:13;;;;;;;;;7.50;5.00;;;;;26.29;41.24;102272.44;4996937;28;45574;-46
2021/06/13 04:31:38;;;;;;;;;5.25;4.00;;;;;26.26;41.51;102278.25;4996730;28;46979;-49
2021/06/13 04:34:04;;;;;;;;;5.25;4.00;;;;;26.28;41.49;102278.09;4997995;28;45352;-45
2021/06/13 04:36:29;;;;;;;;;5.25;4.25;;;;;26.26;41.23;102281.00;4998127;28;45307;-46
2021/06/13 04:38:55;;;;;;;;;4.50;4.00;;;;;26.26;41.56;102277.38;4997990;28;45493;-47
2021/06/13 04:41:20;;;;;;;;;5.00;5.00;;;;;26.26;41.11;102282.88;4997853;28;45424;-45
2021/06/13 04:43:46;;;;;;;;;5.50;5.50;;;;;26.25;41.09;102281.19;5004596;28;45485;-50
2021/06/13 04:46:14;;;;;;;;;6.00;4.25;;;;;26.25;40.99;102284.78;5017703;28;45456;-45
2021/06/13 04:48:40;;;;;;;;;4.00;4.00;;;;;26.24;41.38;102285.81;5017715;28;45355;-45
2021/06/13 04:51:11;;;;;;;;;7.00;5.00;;;;;26.24;41.38;102291.31;5017583;28;45321;-47
2021/06/13 04:54:08;;;;;;;;;4.50;4.50;;;;;26.23;40.82;102297.84;5017742;28;45452;-44
2021/06/13 04:56:58;;;;;;;;;4.50;3.75;;;;;26.21;41.30;102284.28;5016467;28;45403;-44
2021/06/13 04:59:24;;;;;;;;;5.25;4.25;;;;;26.21;41.54;102299.91;5000566;28;45503;-46
2021/06/13 05:01:49;;;;;;;;;5.00;5.00;;;;;26.21;40.84;102294.41;5017328;28;45894;-43
2021/06/13 05:04:16;;;;;;;;;4.00;4.00;;;;;26.17;41.07;102295.78;5017226;28;45368;-47
2021/06/13 05:06:43;;;;;;;;;5.00;3.00;;;;;26.19;40.94;102307.47;5017118;28;45458;-49
2021/06/13 05:09:09;;;;;;;;;4.75;4.50;;;;;26.19;40.99;102296.47;5016965;28;45507;-46
2021/06/13 05:11:34;;;;;;;;;5.75;5.50;;;;;26.16;41.27;102294.06;5015318;28;45329;-44
2021/06/13 05:14:00;;;;;;;;;4.25;4.00;;;;;26.17;41.31;102302.13;5009135;28;45263;-43
2021/06/13 05:16:25;;;;;;;;;5.00;5.00;;;;;26.17;40.77;102295.78;4997225;28;45254;-44
2021/06/13 05:18:51;;;;;;;;;5.00;5.00;;;;;26.17;41.18;102306.81;4997529;28;45260;-46
2021/06/13 05:21:16;;;;;;;;;5.50;3.75;;;;;26.16;40.86;102310.56;4995933;28;45337;-47
2021/06/13 05:23:42;;;;;;;;;5.00;4.00;;;;;26.16;41.42;102308.66;4997280;28;45256;-48
2021/06/13 05:26:07;;;;;;;;;4.00;4.00;;;;;26.15;41.12;102306.09;4997401;28;45243;-48
2021/06/13 05:28:33;;;;;;;;;4.25;4.25;;;;;26.13;41.22;102317.25;4997229;28;45219;-46
2021/06/13 05:30:59;;;;;;;;;4.75;4.00;;;;;26.14;40.62;102313.47;4996998;28;46094;-43
2021/06/13 05:33:25;;;;;;;;;5.50;5.50;;;;;26.13;40.92;102311.75;5012139;28;45432;-47
2021/06/13 05:35:51;;;;;;;;;5.25;4.00;;;;;26.14;40.87;102316.22;5017149;28;45372;-49
2021/06/13 05:38:18;;;;;;;;;4.50;4.00;;;;;26.14;40.59;102318.97;5016767;28;45331;-47
2021/06/13 05:40:43;;;;;;;;;4.75;4.75;;;;;26.14;41.22;102316.22;5016394;28;46171;-46
2021/06/13 05:43:10;;;;;;;;;4.25;3.25;;;;;26.13;41.07;102325.50;5015484;28;45369;-47
2021/06/13 05:45:38;;;;;;;;;5.00;5.00;;;;;26.13;41.06;102321.91;5016858;28;45500;-48
2021/06/13 05:48:05;;;;;;;;;6.00;5.25;;;;;26.14;40.60;102326.38;5016673;28;45199;-45
2021/06/13 05:50:31;;;;;;;;;5.00;4.00;;;;;26.12;40.91;102329.28;4995429;28;46436;-47
2021/06/13 05:52:56;;;;;;;;;5.00;5.00;;;;;26.13;40.55;102335.69;5009095;28;45321;-48
2021/06/13 05:55:22;;;;;;;;;5.75;4.00;;;;;26.12;40.90;102321.03;5016811;28;45385;-46
2021/06/13 05:57:49;;;;;;;;;5.50;5.00;;;;;26.12;40.80;102332.03;5013499;28;45495;-43
2021/06/13 06:00:23;;;;;;;;;5.50;5.50;;;;;26.13;40.70;102330.16;5015781;28;45483;-46
2021/06/13 06:02:49;;;;;;;;;6.00;6.00;;;;;26.12;40.54;102329.28;5015215;28;45660;-44
2021/06/13 06:05:18;;;;;;;;;4.00;4.00;;;;;26.13;40.82;102330.16;5016638;28;45341;-47
2021/06/13 06:07:44;;;;;;;;;5.00;5.00;;;;;26.12;40.95;102340.28;5016376;28;45428;-44
2021/06/13 06:10:11;;;;;;;;;6.00;4.25;;;;;26.10;40.76;102336.84;5002428;28;45447;-47
2021/06/13 06:12:38;;;;;;;;;5.00;5.00;;;;;26.12;40.95;102342.19;4996629;28;45321;-48
2021/06/13 06:15:05;;;;;;;;;6.00;6.00;;;;;26.11;40.99;102340.47;4997865;28;45468;-47
2021/06/13 06:17:31;;;;;;;;;6.25;5.00;;;;;26.12;40.29;102347.72;5015758;28;45338;-47
2021/06/13 06:19:57;;;;;;;;;6.75;4.50;;;;;26.12;40.27;102344.94;5015932;28;46090;-43
2021/06/13 06:22:22;;;;;;;;;4.50;4.00;;;;;26.11;40.61;102355.09;5014933;28;45401;-48
2021/06/13 06:24:47;;;;;;;;;4.00;4.00;;;;;26.11;40.69;102344.06;5015045;28;45311;-44
2021/06/13 06:27:13;;;;;;;;;5.00;3.50;;;;;26.10;40.17;102339.59;5016360;28;45215;-44
2021/06/13 06:29:38;;;;;;;;;9.75;5.75;;;;;26.12;40.82;102347.72;5013920;28;46119;-48
2021/06/13 06:32:04;;;;;;;;;4.00;4.00;;;;;26.12;40.06;102354.06;5015907;28;45270;-44
2021/06/13 06:34:30;;;;;;;;;4.75;4.75;;;;;26.12;40.59;102355.97;5016134;28;45530;-46
2021/06/13 06:36:56;;;;;;;;;3.50;3.00;;;;;26.09;40.51;102346.13;5015954;28;45341;-44
2021/06/13 06:39:21;;;;;;;;;6.00;6.00;;;;;26.10;39.89;102347.84;5014300;28;45341;-45
2021/06/13 06:41:48;;;;;;;;;5.00;4.25;;;;;26.09;40.19;102357.13;5014327;28;45449;-47
2021/06/13 06:44:13;;;;;;;;;4.00;4.00;;;;;26.07;39.69;102357.28;5016063;28;45333;-49
2021/06/13 06:46:39;;;;;;;;;5.50;5.50;;;;;26.06;39.53;102358.31;5014750;28;45348;-45
2021/06/13 06:49:05;;;;;;;;;5.00;5.00;;;;;26.05;39.49;102356.56;5014489;28;45540;-43
2021/06/13 06:51:32;;;;;;;;;5.00;5.00;;;;;26.06;40.00;102365.72;5015885;28;45201;-47
2021/06/13 06:53:58;;;;;;;;;4.75;4.00;;;;;26.04;39.70;102354.00;5016159;28;45183;-46
2021/06/13 06:56:25;;;;;;;;;3.25;3.25;;;;;26.06;39.44;102365.72;5015780;28;45321;-44
2021/06/13 06:58:51;;;;;;;;;3.75;3.75;;;;;26.05;39.49;102362.06;5014130;28;45551;-46
2021/06/13 07:01:17;;;;;;;;;5.50;4.00;;;;;26.06;39.36;102362.97;5015839;28;45586;-43
2021/06/13 07:03:42;;;;;;;;;4.50;4.50;;;;;26.05;39.89;102359.31;5015869;28;45543;-44
2021/06/13 07:06:08;;;;;;;;;3.75;3.75;;;;;26.05;39.93;102352.97;5013657;28;45656;-43
2021/06/13 07:08:33;;;;;;;;;3.50;3.50;;;;;26.05;39.73;102361.22;5013601;28;45814;-43
2021/06/13 07:11:01;;;;;;;;;5.00;4.75;;;;;26.05;39.65;102361.22;4995561;28;45442;-44
2021/06/13 07:13:27;;;;;;;;;4.00;4.00;;;;;26.05;39.52;102361.22;5001402;28;45552;-45
2021/06/13 07:15:53;;;;;;;;;4.50;4.50;;;;;26.03;39.52;102366.03;5012140;28;45375;-45
2021/06/13 07:18:19;;;;;;;;;5.50;5.00;;;;;26.05;38.98;102362.06;5010681;28;46133;-44
2021/06/13 07:20:46;;;;;;;;;3.75;3.75;;;;;26.04;39.08;102359.50;5014638;28;45455;-41
2021/06/13 07:23:12;;;;;;;;;3.00;3.00;;;;;26.04;38.83;102365.00;5013943;28;45342;-43
2021/06/13 07:25:38;;;;;;;;;3.75;3.75;;;;;26.05;38.90;102363.97;5014036;28;45263;-42
2021/06/13 07:28:05;;;;;;;;;3.75;3.75;;;;;26.05;39.28;102364.81;5010979;28;45490;-46
2021/06/13 07:30:33;;;;;;;;;3.00;3.00;;;;;26.05;39.13;102363.97;5016597;28;46509;-45
2021/06/13 07:33:03;;;;;;;;;5.00;4.00;;;;;26.05;39.06;102366.72;5014237;28;45420;-42
2021/06/13 07:35:29;;;;;;;;;4.00;4.00;;;;;26.06;39.01;102371.22;5016729;28;45502;-44
2021/06/13 07:37:55;;;;;;;;;5.50;4.00;;;;;26.06;38.91;102379.47;5018628;28;45391;-45
2021/06/13 07:40:21;;;;;;;;;4.25;3.75;;;;;26.05;38.43;102367.59;5018698;28;45480;-43
2021/06/13 07:42:47;;;;;;;;;5.75;3.75;;;;;26.05;38.80;102373.09;5018996;28;45296;-44
2021/06/13 07:45:14;;;;;;;;;6.50;4.50;;;;;26.06;38.11;102369.31;5018803;28;45431;-46
2021/06/13 07:47:40;;;;;;;;;5.75;5.75;;;;;26.06;38.10;102369.31;5018509;28;45948;-42
2021/06/13 07:50:09;;;;;;;;;2.75;2.75;;;;;26.07;38.36;102364.69;5018666;28;45397;-46
2021/06/13 07:52:35;;;;;;;;;3.00;3.00;;;;;26.07;38.17;102372.94;5018377;28;45686;-44
2021/06/13 07:55:01;;;;;;;;;4.25;4.25;;;;;26.07;38.04;102359.19;5017248;28;45305;-47
2021/06/13 07:57:26;;;;;;;;;4.00;4.00;;;;;26.08;38.05;102366.41;5018356;28;45281;-43
2021/06/13 07:59:52;;;;;;;;;4.00;4.00;;;;;26.09;38.39;102365.38;5016958;28;45341;-43
2021/06/13 08:02:17;;;;;;;;;4.00;3.75;;;;;26.08;38.31;102359.00;5018465;28;45293;-43
2021/06/13 08:04:54;;;;;;;;;4.25;4.00;;;;;26.09;37.88;102368.16;5018568;28;45211;-42
2021/06/13 08:07:19;;;;;;;;;3.00;3.00;;;;;26.08;38.08;102366.41;5018279;28;45374;-43
2021/06/13 08:09:45;;;;;;;;;6.00;4.00;;;;;26.09;38.03;102359.88;5007242;28;45369;-42
2021/06/13 08:12:11;;;;;;;;;3.00;3.00;;;;;26.10;37.87;102352.47;4998666;28;45396;-42
2021/06/13 08:14:37;;;;;;;;;3.75;2.75;;;;;26.11;37.78;102354.22;4998208;28;45462;-46
2021/06/13 08:17:04;;;;;;;;;4.50;3.75;;;;;26.09;37.96;102354.38;5017553;28;45375;-45
2021/06/13 08:19:29;;;;;;;;;4.25;4.25;;;;;26.12;38.08;102355.97;5016517;28;45618;-46
2021/06/13 08:21:55;;;;;;;;;4.00;4.00;;;;;26.13;37.71;102354.94;5018246;28;45486;-42
2021/06/13 08:24:20;;;;;;;;;4.25;4.25;;;;;26.07;37.48;102354.53;5017949;28;45199;-49
2021/06/13 08:26:46;;;;;;;;;3.00;3.00;;;;;26.13;37.78;102363.19;5017950;28;45422;-48
2021/06/13 08:29:11;;;;;;;;;3.50;3.00;;;;;26.14;37.47;102363.03;5017641;28;45217;-44
2021/06/13 08:31:37;;;;;;;;;5.75;4.50;;;;;26.14;37.94;102352.00;5018163;28;45221;-43
2021/06/13 08:34:02;;;;;;;;;3.50;3.50;;;;;26.16;37.94;102360.97;5018122;28;45354;-46
2021/06/13 08:36:28;;;;;;;;;3.00;3.00;;;;;26.16;37.29;102358.22;5017746;28;46031;-45
2021/06/13 08:38:55;;;;;;;;;2.75;2.75;;;;;26.18;37.74;102361.69;5016819;28;45668;-44
2021/06/13 08:41:22;;;;;;;;;2.00;2.00;;;;;26.19;37.77;102362.53;5017876;28;45325;-45
2021/06/13 08:43:49;;;;;;;;;3.75;3.75;;;;;26.17;37.70;102357.19;5016537;28;45439;-46
2021/06/13 08:46:16;;;;;;;;;4.00;4.00;;;;;26.19;37.57;102352.41;5016446;28;45459;-48
2021/06/13 08:48:46;;;;;;;;;3.75;2.75;;;;;26.20;37.52;102351.38;5017730;28;45404;-44
2021/06/13 08:51:12;;;;;;;;;4.00;4.00;;;;;26.21;36.99;102350.34;5017769;28;45408;-44
2021/06/13 08:53:43;;;;;;;;;2.00;2.00;;;;;26.22;36.95;102348.44;5017622;28;45349;-47
2021/06/13 08:56:13;;;;;;;;;2.25;2.00;;;;;26.23;37.31;102352.91;5017603;28;45253;-49
2021/06/13 08:58:38;;;;;;;;;3.00;3.00;;;;;26.25;36.76;102350.03;5016614;28;46901;-45
2021/06/13 09:01:10;;;;;;;;;4.50;3.50;;;;;26.26;36.89;102348.97;5015773;28;45575;-43
2021/06/13 09:03:36;;;;;;;;;2.00;2.00;;;;;26.26;36.75;102344.34;5017172;28;45460;-43
2021/06/13 09:06:01;;;;;;;;;4.00;4.00;;;;;26.28;37.00;102349.66;5014108;28;45534;-45
2021/06/13 09:08:53;;;;;;;;;3.00;3.00;;;;;26.29;37.28;102343.13;5017043;28;45431;-46
2021/06/13 09:11:33;;;;;;;;;4.00;2.00;;;;;26.31;37.04;102343.84;5009627;28;45377;-41
2021/06/13 09:14:13;;;;;;;;;3.75;2.00;;;;;26.32;36.47;102343.69;5003814;28;45413;-43
2021/06/13 09:16:40;;;;;;;;;3.00;3.00;;;;;26.33;37.01;102341.78;5016983;28;45320;-44
2021/06/13 09:19:05;;;;;;;;;3.50;2.50;;;;;26.35;36.96;102334.22;5017208;28;45475;-49
2021/06/13 09:21:33;;;;;;;;;3.00;3.00;;;;;26.36;37.01;102327.69;5017125;28;45403;-48
2021/06/13 09:23:59;;;;;;;;;4.00;3.00;;;;;26.37;36.53;102334.94;5015912;28;45603;-44
2021/06/13 09:26:27;;;;;;;;;3.25;3.25;;;;;26.37;36.83;102330.25;5017024;28;45644;-45
2021/06/13 09:28:53;;;;;;;;;2.00;2.00;;;;;26.40;37.02;102320.78;5016955;28;45210;-46
2021/06/13 09:31:20;;;;;;;;;2.00;2.00;;;;;26.41;36.97;102332.69;5015202;28;45468;-45
2021/06/13 09:33:49;;;;;;;;;2.00;2.00;;;;;26.42;36.82;102328.91;5017018;28;45324;-44
2021/06/13 09:36:20;;;;;;;;;1.75;1.75;;;;;26.43;36.71;102333.38;5016556;28;45920;-49
2021/06/13 09:38:48;;;;;;;;;2.25;2.25;;;;;26.45;36.50;102334.94;5016974;28;45675;-45
2021/06/13 09:41:17;;;;;;;;;4.25;3.75;;;;;26.46;36.34;102335.81;5016828;28;45405;-43
2021/06/13 09:43:47;;;;;;;;;3.75;3.00;;;;;26.45;36.08;102337.69;5016838;28;45226;-44
2021/06/13 09:46:17;;;;;;;;;3.25;3.25;;;;;26.47;36.53;102332.03;5016751;28;46062;-46
2021/06/13 09:48:45;;;;;;;;;2.50;2.50;;;;;26.49;36.26;102329.94;5015410;28;45232;-48
2021/06/13 09:51:14;;;;;;;;;3.25;3.25;;;;;26.50;36.26;102329.81;5015679;28;45475;-46
2021/06/13 09:53:45;;;;;;;;;2.00;2.00;;;;;26.50;36.65;102332.56;5015567;28;45356;-47
2021/06/13 09:56:22;;;;;;;;;3.50;3.50;;;;;26.52;36.26;102330.50;5016605;28;45987;-47
2021/06/13 09:58:52;;;;;;;;;3.25;3.00;;;;;26.54;36.58;102322.91;5016405;28;45564;-45
2021/06/13 10:01:18;;;;;;;;;4.00;2.00;;;;;26.54;36.72;102333.06;4996857;28;45397;-47
2021/06/13 10:03:47;;;;;;;;;2.00;2.00;;;;;26.58;36.23;102322.56;4996809;28;45990;-44
2021/06/13 10:06:14;;;;;;;;;4.50;4.50;;;;;26.60;36.12;102326.91;4996228;28;45606;-44
2021/06/13 10:08:42;;;;;;;;;2.00;2.00;;;;;26.62;36.55;102323.97;4997878;28;45317;-44
2021/06/13 10:11:08;;;;;;;;;3.00;3.00;;;;;26.64;36.11;102321.91;5016498;28;45272;-44
2021/06/13 10:13:51;;;;;;;;;3.00;3.00;;;;;26.64;35.64;102322.78;5012066;28;45299;-46
2021/06/13 10:16:31;;;;;;;;;4.00;4.00;;;;;26.65;35.72;102320.91;5009343;28;45328;-47
2021/06/13 10:19:09;;;;;;;;;3.50;2.50;;;;;26.65;35.59;102326.41;5016428;28;45638;-44
2021/06/13 10:21:41;;;;;;;;;4.00;4.00;;;;;26.67;36.03;102321.59;5015857;28;45407;-42
2021/06/13 10:24:10;;;;;;;;;4.00;3.25;;;;;26.68;36.27;102304.03;5015999;28;45518;-47
2021/06/13 10:26:40;;;;;;;;;4.75;3.25;;;;;26.68;35.32;102307.63;5015469;28;45265;-44
2021/06/13 10:29:06;;;;;;;;;2.75;2.75;;;;;26.71;35.87;102309.19;5014539;28;45635;-43
2021/06/13 10:31:33;;;;;;;;;3.75;3.00;;;;;26.72;35.13;102304.53;5014989;28;45359;-42
2021/06/13 10:33:59;;;;;;;;;3.50;3.50;;;;;26.73;35.59;102304.38;5016031;28;45507;-45
2021/06/13 10:36:26;;;;;;;;;2.75;2.75;;;;;26.73;35.30;102296.09;5016132;28;45498;-47
2021/06/13 10:38:52;;;;;;;;;4.50;4.50;;;;;26.75;35.24;102301.47;5016256;28;45365;-45
2021/06/13 10:41:17;;;;;;;;;6.00;6.00;;;;;26.76;35.46;102294.88;5014759;28;45431;-42
2021/06/13 10:43:44;;;;;;;;;4.25;3.50;;;;;26.78;35.12;102298.34;5016035;28;45463;-47
2021/06/13 10:46:19;;;;;;;;;3.50;3.50;;;;;26.80;35.33;102301.81;5014770;28;46895;-42
2021/06/13 10:48:51;;;;;;;;;4.25;4.25;;;;;26.81;35.74;102295.28;5015623;28;45262;-43
2021/06/13 10:51:36;;;;;;;;;6.00;6.00;;;;;26.84;34.77;102290.28;5014939;28;45445;-48
2021/06/13 10:54:24;;;;;;;;;5.75;5.75;;;;;26.88;34.84;102290.84;5016023;28;45473;-49
2021/06/13 10:56:56;;;;;;;;;4.00;4.00;;;;;26.91;34.71;102286.88;5015879;28;45442;-42
2021/06/13 10:59:23;;;;;;;;;4.75;4.75;;;;;26.93;34.87;102290.31;5014380;28;45597;-43
2021/06/13 11:02:03;;;;;;;;;5.00;4.00;;;;;26.92;34.90;102278.41;5016044;28;45185;-43
2021/06/13 11:04:44;;;;;;;;;4.00;4.00;;;;;26.94;34.63;102281.00;5018978;28;45392;-45
2021/06/13 11:07:35;;;;;;;;;5.00;5.00;;;;;26.97;34.31;102286.16;5019246;28;45410;-48
2021/06/13 11:10:24;;;;;;;;;3.00;3.00;;;;;26.99;34.62;102279.47;5015297;28;45242;-42
2021/06/13 11:13:01;;;;;;;;;5.75;4.75;;;;;26.97;34.39;102278.78;5019009;28;45187;-46
2021/06/13 11:15:30;;;;;;;;;3.00;3.00;;;;;27.02;34.42;102274.66;5005435;28;45489;-44
2021/06/13 11:17:59;;;;;;;;;4.00;4.00;;;;;27.05;34.07;102283.44;5018831;28;45412;-46
2021/06/13 11:23:06;;;;;;;;;4.00;4.00;;;;;27.07;34.17;102266.69;5019286;28;45325;-46
2021/06/13 11:25:37;;;;;;;;;5.25;4.75;;;;;27.11;34.46;102273.59;5017531;28;45179;-44
2021/06/13 11:28:28;;;;;;;;;3.75;3.75;;;;;27.12;33.74;102265.16;5018799;28;46134;-43
2021/06/13 11:30:56;;;;;;;;;3.75;3.75;;;;;27.17;33.98;102261.00;5018894;28;45487;-42
2021/06/13 11:33:36;;;;;;;;;4.00;3.00;;;;;27.19;32.85;102264.47;5018947;28;45508;-42